<?xml version="1.0" encoding="UTF-8" standalone="no" ?>
<gpx xmlns="http://www.topografix.com/GPX/1/1" xmlns:xsi="http://www.w3.org/2001/XMLSchema-instance" xsi:schemaLocation="http://www.topografix.com/GPX/1/1 http://www.topografix.com/GPX/1/1/gpx.xsd" version="1.1" creator="VisuGPX - https://www.visugpx.com">
  <metadata>
    <name>LA PUY MERCOU 15</name>
    <desc><![CDATA[RANDO PEDESTRE  POUR  PERSONNES VOULANT DECOUVRIR LA COMMUNE DE PAULHAC ITINERAIRE AGREABLE ]]></desc>
  </metadata>
  <trk>
    <name><![CDATA[OR-7677264--Paulhac:fete patronale  pedestre]]></name>
    <trkseg>
      <trkpt lat="45.00643" lon="2.90535">
        <ele>1113</ele>
        <time>2017-07-22T18:01:20Z</time>
      </trkpt>
      <trkpt lat="45.00769" lon="2.90221">
        <ele>1131</ele>
        <time>2017-07-22T18:03:20Z</time>
      </trkpt>
      <trkpt lat="45.00766" lon="2.90097">
        <ele>1137</ele>
        <time>2017-07-22T18:05:20Z</time>
      </trkpt>
      <trkpt lat="45.00988" lon="2.89779">
        <ele>1157</ele>
        <time>2017-07-22T18:07:20Z</time>
      </trkpt>
      <trkpt lat="45.0107" lon="2.89595">
        <ele>1171</ele>
        <time>2017-07-22T18:09:20Z</time>
      </trkpt>
      <trkpt lat="45.00669" lon="2.89492">
        <ele>1208</ele>
        <time>2017-07-22T18:11:20Z</time>
      </trkpt>
      <trkpt lat="45.00582" lon="2.89472">
        <ele>1215</ele>
        <time>2017-07-22T18:13:20Z</time>
      </trkpt>
      <trkpt lat="45.00506" lon="2.89478">
        <ele>1214</ele>
        <time>2017-07-22T18:15:20Z</time>
      </trkpt>
      <trkpt lat="45.00353" lon="2.89285">
        <ele>1198</ele>
        <time>2017-07-22T18:17:20Z</time>
      </trkpt>
      <trkpt lat="45.00298" lon="2.89208">
        <ele>1193</ele>
        <time>2017-07-22T18:19:20Z</time>
      </trkpt>
      <trkpt lat="45.00256" lon="2.89208">
        <ele>1186</ele>
        <time>2017-07-22T18:21:20Z</time>
      </trkpt>
      <trkpt lat="45.00168" lon="2.89315">
        <ele>1172</ele>
        <time>2017-07-22T18:23:20Z</time>
      </trkpt>
      <trkpt lat="45.00107" lon="2.89534">
        <ele>1163</ele>
        <time>2017-07-22T18:25:20Z</time>
      </trkpt>
      <trkpt lat="44.99905" lon="2.89673">
        <ele>1147</ele>
        <time>2017-07-22T18:27:20Z</time>
      </trkpt>
      <trkpt lat="44.99872" lon="2.89437">
        <ele>1134</ele>
        <time>2017-07-22T18:29:20Z</time>
      </trkpt>
      <trkpt lat="44.99863" lon="2.89251">
        <ele>1125</ele>
        <time>2017-07-22T18:31:20Z</time>
      </trkpt>
      <trkpt lat="44.99842" lon="2.89081">
        <ele>1121</ele>
        <time>2017-07-22T18:33:20Z</time>
      </trkpt>
      <trkpt lat="44.99808" lon="2.89">
        <ele>1112</ele>
        <time>2017-07-22T18:35:20Z</time>
      </trkpt>
      <trkpt lat="44.99801" lon="2.88899">
        <ele>1105</ele>
        <time>2017-07-22T18:37:20Z</time>
      </trkpt>
      <trkpt lat="44.99811" lon="2.88781">
        <ele>1093</ele>
        <time>2017-07-22T18:39:20Z</time>
      </trkpt>
      <trkpt lat="44.99801" lon="2.88682">
        <ele>1078</ele>
        <time>2017-07-22T18:41:20Z</time>
      </trkpt>
      <trkpt lat="44.99892" lon="2.88433">
        <ele>1068</ele>
        <time>2017-07-22T18:43:20Z</time>
      </trkpt>
      <trkpt lat="44.99969" lon="2.88257">
        <ele>1055</ele>
        <time>2017-07-22T18:45:20Z</time>
      </trkpt>
      <trkpt lat="45.00001" lon="2.88225">
        <ele>1054</ele>
        <time>2017-07-22T18:47:20Z</time>
      </trkpt>
      <trkpt lat="45.00186" lon="2.88219">
        <ele>1070</ele>
        <time>2017-07-22T18:49:20Z</time>
      </trkpt>
      <trkpt lat="45.00447" lon="2.88066">
        <ele>1071</ele>
        <time>2017-07-22T18:51:20Z</time>
      </trkpt>
      <trkpt lat="45.0057" lon="2.87944">
        <ele>1071</ele>
        <time>2017-07-22T18:53:20Z</time>
      </trkpt>
      <trkpt lat="45.00649" lon="2.87813">
        <ele>1073</ele>
        <time>2017-07-22T18:55:20Z</time>
      </trkpt>
      <trkpt lat="45.00696" lon="2.87601">
        <ele>1069</ele>
        <time>2017-07-22T18:57:20Z</time>
      </trkpt>
      <trkpt lat="45.00735" lon="2.87495">
        <ele>1069</ele>
        <time>2017-07-22T18:59:20Z</time>
      </trkpt>
      <trkpt lat="45.00814" lon="2.87382">
        <ele>1076</ele>
        <time>2017-07-22T19:01:20Z</time>
      </trkpt>
      <trkpt lat="45.00852" lon="2.87313">
        <ele>1073</ele>
        <time>2017-07-22T19:03:20Z</time>
      </trkpt>
      <trkpt lat="45.00898" lon="2.87283">
        <ele>1080</ele>
        <time>2017-07-22T19:05:20Z</time>
      </trkpt>
      <trkpt lat="45.0111" lon="2.86957">
        <ele>1097</ele>
        <time>2017-07-22T19:07:20Z</time>
      </trkpt>
      <trkpt lat="45.01157" lon="2.8685">
        <ele>1104</ele>
        <time>2017-07-22T19:09:20Z</time>
      </trkpt>
      <trkpt lat="45.01148" lon="2.86682">
        <ele>1093</ele>
        <time>2017-07-22T19:11:20Z</time>
      </trkpt>
      <trkpt lat="45.012" lon="2.86601">
        <ele>1087</ele>
        <time>2017-07-22T19:13:20Z</time>
      </trkpt>
      <trkpt lat="45.01362" lon="2.86523">
        <ele>1089</ele>
        <time>2017-07-22T19:15:20Z</time>
      </trkpt>
      <trkpt lat="45.01454" lon="2.86461">
        <ele>1086</ele>
        <time>2017-07-22T19:17:20Z</time>
      </trkpt>
      <trkpt lat="45.01589" lon="2.86412">
        <ele>1089</ele>
        <time>2017-07-22T19:19:20Z</time>
      </trkpt>
      <trkpt lat="45.01659" lon="2.86326">
        <ele>1088</ele>
        <time>2017-07-22T19:21:20Z</time>
      </trkpt>
      <trkpt lat="45.0177" lon="2.86111">
        <ele>1090</ele>
        <time>2017-07-22T19:23:20Z</time>
      </trkpt>
      <trkpt lat="45.018" lon="2.86002">
        <ele>1088</ele>
        <time>2017-07-22T19:25:20Z</time>
      </trkpt>
      <trkpt lat="45.01853" lon="2.85882">
        <ele>1096</ele>
        <time>2017-07-22T19:27:20Z</time>
      </trkpt>
      <trkpt lat="45.01867" lon="2.85689">
        <ele>1095</ele>
        <time>2017-07-22T19:29:20Z</time>
      </trkpt>
      <trkpt lat="45.01908" lon="2.85622">
        <ele>1102</ele>
        <time>2017-07-22T19:31:20Z</time>
      </trkpt>
      <trkpt lat="45.01938" lon="2.85594">
        <ele>1106</ele>
        <time>2017-07-22T19:33:20Z</time>
      </trkpt>
      <trkpt lat="45.0197" lon="2.85549">
        <ele>1107</ele>
        <time>2017-07-22T19:35:20Z</time>
      </trkpt>
      <trkpt lat="45.01926" lon="2.85523">
        <ele>1104</ele>
        <time>2017-07-22T19:37:20Z</time>
      </trkpt>
      <trkpt lat="45.01925" lon="2.85489">
        <ele>1103</ele>
        <time>2017-07-22T19:39:20Z</time>
      </trkpt>
      <trkpt lat="45.01902" lon="2.8547">
        <ele>1103</ele>
        <time>2017-07-22T19:41:20Z</time>
      </trkpt>
      <trkpt lat="45.01897" lon="2.85433">
        <ele>1104</ele>
        <time>2017-07-22T19:43:20Z</time>
      </trkpt>
      <trkpt lat="45.0182" lon="2.85504">
        <ele>1104</ele>
        <time>2017-07-22T19:45:20Z</time>
      </trkpt>
      <trkpt lat="45.01799" lon="2.85586">
        <ele>1102</ele>
        <time>2017-07-22T19:47:20Z</time>
      </trkpt>
      <trkpt lat="45.0175" lon="2.85706">
        <ele>1095</ele>
        <time>2017-07-22T19:49:20Z</time>
      </trkpt>
      <trkpt lat="45.01696" lon="2.85862">
        <ele>1094</ele>
        <time>2017-07-22T19:51:20Z</time>
      </trkpt>
      <trkpt lat="45.0162" lon="2.86006">
        <ele>1087</ele>
        <time>2017-07-22T19:53:20Z</time>
      </trkpt>
      <trkpt lat="45.01524" lon="2.86041">
        <ele>1094</ele>
        <time>2017-07-22T19:55:20Z</time>
      </trkpt>
      <trkpt lat="45.01459" lon="2.86081">
        <ele>1088</ele>
        <time>2017-07-22T19:57:20Z</time>
      </trkpt>
      <trkpt lat="45.01383" lon="2.86088">
        <ele>1091</ele>
        <time>2017-07-22T19:59:20Z</time>
      </trkpt>
      <trkpt lat="45.01332" lon="2.86077">
        <ele>1096</ele>
        <time>2017-07-22T20:01:20Z</time>
      </trkpt>
      <trkpt lat="45.01289" lon="2.86066">
        <ele>1100</ele>
        <time>2017-07-22T20:03:20Z</time>
      </trkpt>
      <trkpt lat="45.01221" lon="2.86036">
        <ele>1112</ele>
        <time>2017-07-22T20:05:20Z</time>
      </trkpt>
      <trkpt lat="45.01149" lon="2.86058">
        <ele>1108</ele>
        <time>2017-07-22T20:07:20Z</time>
      </trkpt>
      <trkpt lat="45.01045" lon="2.86116">
        <ele>1112</ele>
        <time>2017-07-22T20:09:20Z</time>
      </trkpt>
      <trkpt lat="45.01007" lon="2.86176">
        <ele>1110</ele>
        <time>2017-07-22T20:11:20Z</time>
      </trkpt>
      <trkpt lat="45.00964" lon="2.86257">
        <ele>1100</ele>
        <time>2017-07-22T20:13:20Z</time>
      </trkpt>
      <trkpt lat="45.00937" lon="2.86302">
        <ele>1097</ele>
        <time>2017-07-22T20:15:20Z</time>
      </trkpt>
      <trkpt lat="45.00942" lon="2.86362">
        <ele>1089</ele>
        <time>2017-07-22T20:17:20Z</time>
      </trkpt>
      <trkpt lat="45.00928" lon="2.86399">
        <ele>1089</ele>
        <time>2017-07-22T20:19:20Z</time>
      </trkpt>
      <trkpt lat="45.00949" lon="2.86485">
        <ele>1082</ele>
        <time>2017-07-22T20:21:20Z</time>
      </trkpt>
      <trkpt lat="45.00964" lon="2.8653">
        <ele>1078</ele>
        <time>2017-07-22T20:23:20Z</time>
      </trkpt>
      <trkpt lat="45.00946" lon="2.86626">
        <ele>1076</ele>
        <time>2017-07-22T20:25:20Z</time>
      </trkpt>
      <trkpt lat="45.00895" lon="2.86678">
        <ele>1081</ele>
        <time>2017-07-22T20:27:20Z</time>
      </trkpt>
      <trkpt lat="45.00857" lon="2.86759">
        <ele>1077</ele>
        <time>2017-07-22T20:29:20Z</time>
      </trkpt>
      <trkpt lat="45.00829" lon="2.86845">
        <ele>1069</ele>
        <time>2017-07-22T20:31:20Z</time>
      </trkpt>
      <trkpt lat="45.00749" lon="2.87028">
        <ele>1068</ele>
        <time>2017-07-22T20:33:20Z</time>
      </trkpt>
      <trkpt lat="45.00622" lon="2.87238">
        <ele>1066</ele>
        <time>2017-07-22T20:35:20Z</time>
      </trkpt>
      <trkpt lat="45.00559" lon="2.87418">
        <ele>1060</ele>
        <time>2017-07-22T20:37:20Z</time>
      </trkpt>
      <trkpt lat="45.00546" lon="2.87517">
        <ele>1055</ele>
        <time>2017-07-22T20:39:20Z</time>
      </trkpt>
      <trkpt lat="45.005" lon="2.87553">
        <ele>1056</ele>
        <time>2017-07-22T20:41:20Z</time>
      </trkpt>
      <trkpt lat="45.0045" lon="2.87626">
        <ele>1058</ele>
        <time>2017-07-22T20:43:20Z</time>
      </trkpt>
      <trkpt lat="45.00423" lon="2.87695">
        <ele>1053</ele>
        <time>2017-07-22T20:45:20Z</time>
      </trkpt>
      <trkpt lat="45.00395" lon="2.8765">
        <ele>1062</ele>
        <time>2017-07-22T20:47:20Z</time>
      </trkpt>
      <trkpt lat="45.00194" lon="2.87727">
        <ele>1071</ele>
        <time>2017-07-22T20:49:20Z</time>
      </trkpt>
      <trkpt lat="45.00062" lon="2.87787">
        <ele>1064</ele>
        <time>2017-07-22T20:51:20Z</time>
      </trkpt>
      <trkpt lat="45.00131" lon="2.87832">
        <ele>1052</ele>
        <time>2017-07-22T20:53:20Z</time>
      </trkpt>
      <trkpt lat="45.00059" lon="2.87847">
        <ele>1052</ele>
        <time>2017-07-22T20:55:20Z</time>
      </trkpt>
      <trkpt lat="44.9998" lon="2.8794">
        <ele>1045</ele>
        <time>2017-07-22T20:57:20Z</time>
      </trkpt>
      <trkpt lat="44.99945" lon="2.88002">
        <ele>1043</ele>
        <time>2017-07-22T20:59:20Z</time>
      </trkpt>
      <trkpt lat="44.99949" lon="2.88096">
        <ele>1043</ele>
        <time>2017-07-22T21:01:20Z</time>
      </trkpt>
      <trkpt lat="44.99965" lon="2.88197">
        <ele>1048</ele>
        <time>2017-07-22T21:03:20Z</time>
      </trkpt>
      <trkpt lat="44.99955" lon="2.88246">
        <ele>1051</ele>
        <time>2017-07-22T21:05:20Z</time>
      </trkpt>
      <trkpt lat="44.99773" lon="2.88504">
        <ele>1044</ele>
        <time>2017-07-22T21:07:20Z</time>
      </trkpt>
      <trkpt lat="44.9969" lon="2.88804">
        <ele>1051</ele>
        <time>2017-07-22T21:09:20Z</time>
      </trkpt>
      <trkpt lat="44.99579" lon="2.88987">
        <ele>1053</ele>
        <time>2017-07-22T21:11:20Z</time>
      </trkpt>
      <trkpt lat="44.99549" lon="2.89139">
        <ele>1063</ele>
        <time>2017-07-22T21:13:20Z</time>
      </trkpt>
      <trkpt lat="44.99476" lon="2.89362">
        <ele>1077</ele>
        <time>2017-07-22T21:15:20Z</time>
      </trkpt>
      <trkpt lat="44.99434" lon="2.89551">
        <ele>1085</ele>
        <time>2017-07-22T21:17:20Z</time>
      </trkpt>
      <trkpt lat="44.99374" lon="2.89703">
        <ele>1089</ele>
        <time>2017-07-22T21:19:20Z</time>
      </trkpt>
      <trkpt lat="44.99356" lon="2.89916">
        <ele>1100</ele>
        <time>2017-07-22T21:21:20Z</time>
      </trkpt>
      <trkpt lat="44.99368" lon="2.90057">
        <ele>1094</ele>
        <time>2017-07-22T21:23:20Z</time>
      </trkpt>
      <trkpt lat="44.99358" lon="2.90244">
        <ele>1080</ele>
        <time>2017-07-22T21:25:20Z</time>
      </trkpt>
      <trkpt lat="44.9935" lon="2.90315">
        <ele>1077</ele>
        <time>2017-07-22T21:27:20Z</time>
      </trkpt>
      <trkpt lat="44.99212" lon="2.90343">
        <ele>1070</ele>
        <time>2017-07-22T21:29:20Z</time>
      </trkpt>
      <trkpt lat="44.99166" lon="2.9051">
        <ele>1064</ele>
        <time>2017-07-22T21:31:20Z</time>
      </trkpt>
      <trkpt lat="44.99162" lon="2.90628">
        <ele>1060</ele>
        <time>2017-07-22T21:33:20Z</time>
      </trkpt>
      <trkpt lat="44.99042" lon="2.90806">
        <ele>1051</ele>
        <time>2017-07-22T21:35:20Z</time>
      </trkpt>
      <trkpt lat="44.99174" lon="2.90901">
        <ele>1050</ele>
        <time>2017-07-22T21:37:20Z</time>
      </trkpt>
      <trkpt lat="44.99224" lon="2.90989">
        <ele>1051</ele>
        <time>2017-07-22T21:39:20Z</time>
      </trkpt>
      <trkpt lat="44.99339" lon="2.91077">
        <ele>1048</ele>
        <time>2017-07-22T21:41:20Z</time>
      </trkpt>
      <trkpt lat="44.99479" lon="2.91098">
        <ele>1051</ele>
        <time>2017-07-22T21:43:20Z</time>
      </trkpt>
      <trkpt lat="44.99579" lon="2.91188">
        <ele>1051</ele>
        <time>2017-07-22T21:45:20Z</time>
      </trkpt>
      <trkpt lat="44.99696" lon="2.9124">
        <ele>1053</ele>
        <time>2017-07-22T21:47:20Z</time>
      </trkpt>
      <trkpt lat="44.99757" lon="2.90961">
        <ele>1059</ele>
        <time>2017-07-22T21:49:20Z</time>
      </trkpt>
      <trkpt lat="44.9984" lon="2.90742">
        <ele>1071</ele>
        <time>2017-07-22T21:51:20Z</time>
      </trkpt>
      <trkpt lat="44.9994" lon="2.90553">
        <ele>1087</ele>
        <time>2017-07-22T21:53:20Z</time>
      </trkpt>
      <trkpt lat="44.99907" lon="2.90487">
        <ele>1088</ele>
        <time>2017-07-22T21:55:20Z</time>
      </trkpt>
      <trkpt lat="44.99933" lon="2.90386">
        <ele>1093</ele>
        <time>2017-07-22T21:57:20Z</time>
      </trkpt>
      <trkpt lat="44.9999" lon="2.90433">
        <ele>1094</ele>
        <time>2017-07-22T21:59:20Z</time>
      </trkpt>
      <trkpt lat="45.00125" lon="2.90422">
        <ele>1096</ele>
        <time>2017-07-22T22:01:20Z</time>
      </trkpt>
      <trkpt lat="45.00259" lon="2.90517">
        <ele>1096</ele>
        <time>2017-07-22T22:03:20Z</time>
      </trkpt>
      <trkpt lat="45.00335" lon="2.9057">
        <ele>1097</ele>
        <time>2017-07-22T22:05:20Z</time>
      </trkpt>
      <trkpt lat="45.00449" lon="2.90551">
        <ele>1102</ele>
        <time>2017-07-22T22:07:20Z</time>
      </trkpt>
      <trkpt lat="45.00562" lon="2.9051">
        <ele>1110</ele>
        <time>2017-07-22T22:09:20Z</time>
      </trkpt>
      <trkpt lat="45.00631" lon="2.90495">
        <ele>1115</ele>
        <time>2017-07-22T22:11:20Z</time>
      </trkpt>
    </trkseg>
  </trk>
</gpx>